KINDAKUN POINT, BC current weather conditions

sailwx.info

Wind from 340 at 19 knots

Air temperature 14.0° C
Dewpoint 12.0° C

Last reported at 2015-Jul-05 06:00 UTC.
Time now 2015-Jul-05 07:43 UTC

Location: N 53°19' W 132°46'.
View on Google Maps.

See reports from other nearby stations

  
Tides and Currents Weather Stations Pressure Air Temp Water Temp Dewpoint Dewpoint Depression Visibility Wind Speed Wind Dir Waves Ship Positions
date/time (UTC)wind fromknots sea level pressurealtimeterstation pressurevisibilityair tempwater tempwave heightnotes
2015-Jul-05 06:00 340 19 14.0
2015-Jul-05 05:00 350 20 gusting 27 14.0
2015-Jul-05 04:00 340 20 15.0
2015-Jul-05 03:00 340 24 15.0
2015-Jul-05 02:00 340 27 15.0
2015-Jul-05 01:00 340 27 15.0
2015-Jul-05 00:00 340 26 14.0
2015-Jul-04 23:00 340 22 gusting 27 14.0
2015-Jul-04 22:00 340 18 gusting 25 14.0
2015-Jul-04 21:00 340 22 14.0
2015-Jul-04 20:00 340 20 14.0
2015-Jul-04 19:00 340 22 14.0
2015-Jul-04 18:00 340 19 14.0
2015-Jul-04 17:00 340 20 14.0
2015-Jul-04 16:00 020 7 14.0
2015-Jul-04 15:00 360 18 14.0
2015-Jul-04 14:00 020 9 14.0
2015-Jul-04 13:00 010 12 14.0
2015-Jul-04 12:00 360 14 14.0
2015-Jul-04 11:00 010 10 gusting 16 14.0
2015-Jul-04 10:00 360 12 14.0
2015-Jul-04 09:00 350 16 14.0
2015-Jul-04 08:00 350 20 14.0
2015-Jul-04 07:00 350 18 14.0
2015-Jul-04 06:00 350 15 15.0
2015-Jul-04 05:00 350 18 15.0
2015-Jul-04 04:00 350 24 15.0
2015-Jul-04 03:00 350 22 15.0
2015-Jul-04 02:00 350 20 15.0
2015-Jul-04 01:00 020 11 gusting 16 15.0
2015-Jul-04 00:00 350 20 15.0
2015-Jul-03 23:00 350 22 15.0
2015-Jul-03 22:00 350 20 14.0
2015-Jul-03 21:00 350 19 14.0
2015-Jul-03 20:00 350 17 14.0
2015-Jul-03 19:00 360 14 14.0
2015-Jul-03 18:00 360 11 14.0
2015-Jul-03 17:00 340 9 13.0
2015-Jul-03 16:00 010 1 14.0
2015-Jul-03 15:00 360 5 13.0
2015-Jul-03 14:00 040 4 12.0
2015-Jul-03 13:00 12.0
2015-Jul-03 12:00 020 7 12.0
2015-Jul-03 11:00 030 5 12.0
2015-Jul-03 10:00 010 4 13.0
2015-Jul-03 09:00 010 9 13.0
2015-Jul-03 08:00 350 15 13.0
2015-Jul-03 07:00 350 18 13.0